createdAt,value
2023-04-18T00:01:40.707Z,97532.41
2023-04-18T00:04:09.446Z,97532.25
2023-04-18T00:06:36.713Z,97532.25
2023-04-18T00:09:04.236Z,97541.34
2023-04-18T00:11:31.434Z,97531.84
2023-04-18T00:13:59.704Z,97535.72
2023-04-18T00:16:28.610Z,97541.09
2023-04-18T00:18:57.482Z,97513.19
2023-04-18T00:21:27.249Z,97542.47
2023-04-18T00:23:57.335Z,97542.31
2023-04-18T00:26:24.793Z,97539.78
2023-04-18T00:28:54.482Z,97532.34
2023-04-18T00:31:21.686Z,97548.63
2023-04-18T00:33:51.364Z,97544.94
2023-04-18T00:36:33.750Z,97544.75
2023-04-18T00:39:00.826Z,97543.44
2023-04-18T00:41:28.616Z,97534.28
2023-04-18T00:43:55.822Z,97530.56
2023-04-18T00:46:23.195Z,97539.53
2023-04-18T00:48:51.067Z,97535.63
2023-04-18T00:51:18.536Z,97545.13
2023-04-18T00:53:46.514Z,97547.94
2023-04-18T00:56:13.793Z,97547.78
2023-04-18T00:58:41.372Z,97543.72
2023-04-18T01:01:10.030Z,97535.13
2023-04-18T01:03:37.812Z,97540.53
2023-04-18T01:06:05.261Z,97546.94
2023-04-18T01:08:33.620Z,97551.19
2023-04-18T01:11:00.820Z,97554.88
2023-04-18T01:13:27.938Z,97548.22
2023-04-18T01:15:56.153Z,97549.28
2023-04-18T01:18:23.326Z,97538.41
2023-04-18T01:20:52.085Z,97544.38
2023-04-18T01:23:21.021Z,97547.09
2023-04-18T01:25:51.839Z,97548.53
2023-04-18T01:28:21.533Z,97544.78
2023-04-18T01:30:48.959Z,97547.47
2023-04-18T01:33:16.656Z,97541.56
2023-04-18T01:35:46.123Z,97537.50
2023-04-18T01:38:13.273Z,97545.97
2023-04-18T01:40:40.444Z,97546.47
2023-04-18T01:43:07.583Z,97539.34
2023-04-18T01:45:37.905Z,97544.28
2023-04-18T01:48:05.147Z,97547.66
2023-04-18T01:50:32.322Z,97543.75
2023-04-18T01:52:59.467Z,97544.59
2023-04-18T01:55:26.676Z,97548.34
2023-04-18T01:57:55.018Z,97541.28
2023-04-18T02:00:22.379Z,97551.03
2023-04-18T02:02:50.785Z,97547.59
2023-04-18T02:05:20.877Z,97554.25
2023-04-18T02:07:50.406Z,97553.53
2023-04-18T02:10:18.603Z,97552.72
2023-04-18T02:12:45.934Z,97551.19
2023-04-18T02:15:13.090Z,97524.97
2023-04-18T02:17:42.216Z,97543.72
2023-04-18T02:20:11.014Z,97549.19
2023-04-18T02:22:38.618Z,97549.88
2023-04-18T02:25:06.184Z,97552.13
2023-04-18T02:27:33.322Z,97542.22
2023-04-18T02:30:00.442Z,97539.19
2023-04-18T02:32:27.609Z,97534.28
2023-04-18T02:34:54.776Z,97532.78
2023-04-18T02:37:21.956Z,97533.44
2023-04-18T02:39:49.073Z,97533.28
2023-04-18T02:42:16.290Z,97531.56
2023-04-18T02:44:43.408Z,97540.22
2023-04-18T02:47:10.704Z,97544.41
2023-04-18T02:49:41.211Z,97536.31
2023-04-18T02:52:08.383Z,97546.47
2023-04-18T02:54:35.487Z,97545.09
2023-04-18T02:57:08.009Z,97544.28
2023-04-18T02:59:58.387Z,97534.28
2023-04-18T03:02:25.774Z,97546.47
2023-04-18T03:04:57.747Z,97540.56
2023-04-18T03:07:25.067Z,97549.84
2023-04-18T03:09:52.711Z,97536.44
2023-04-18T03:12:25.054Z,97545.06
2023-04-18T03:14:52.230Z,97549.50
2023-04-18T03:17:19.733Z,97552.81
2023-04-18T03:19:49.281Z,97553.84
2023-04-18T03:22:19.588Z,97552.63
2023-04-18T03:24:57.080Z,97547.13
2023-04-18T03:27:39.388Z,97552.47
2023-04-18T03:30:07.714Z,97557.00
2023-04-18T03:32:36.652Z,97554.88
2023-04-18T03:35:04.268Z,97565.88
2023-04-18T03:37:31.325Z,97563.88
2023-04-18T03:39:59.903Z,97549.59
2023-04-18T03:42:28.736Z,97554.22
2023-04-18T03:44:56.020Z,97563.22
2023-04-18T03:47:23.668Z,97556.06
2023-04-18T03:49:55.985Z,97560.84
2023-04-18T03:52:25.006Z,97551.72
2023-04-18T03:54:52.296Z,97553.78
2023-04-18T03:57:24.192Z,97571.50
2023-04-18T03:59:52.103Z,97571.00
2023-04-18T04:02:19.423Z,97577.31
2023-04-18T04:04:47.304Z,97582.69
2023-04-18T04:07:14.905Z,97592.03
2023-04-18T04:09:42.474Z,97584.38
2023-04-18T04:12:09.795Z,97595.03
2023-04-18T04:14:37.300Z,97603.34
2023-04-18T04:17:04.651Z,97608.25
2023-04-18T04:19:32.011Z,97603.16
2023-04-18T04:22:09.275Z,97605.94
2023-04-18T04:24:38.758Z,97596.28
2023-04-18T04:27:07.215Z,97596.13
2023-04-18T04:29:39.037Z,97591.19
2023-04-18T04:32:07.076Z,97601.41
2023-04-18T04:34:37.793Z,97599.63
2023-04-18T04:37:08.368Z,97597.22
2023-04-18T04:39:42.074Z,97590.34
2023-04-18T04:42:32.311Z,97601.19
2023-04-18T04:45:08.541Z,97589.44
2023-04-18T04:47:37.038Z,97598.59
2023-04-18T04:50:06.517Z,97600.31
2023-04-18T04:52:33.775Z,97592.03
2023-04-18T04:55:02.200Z,97597.28
2023-04-18T04:57:29.321Z,97591.66
2023-04-18T04:59:56.596Z,97598.09
2023-04-18T05:02:23.946Z,97596.53
2023-04-18T05:04:51.356Z,97601.13
2023-04-18T05:07:18.456Z,97603.88
2023-04-18T05:09:45.566Z,97607.09
2023-04-18T05:12:12.708Z,97612.22
2023-04-18T05:14:39.837Z,97611.63
2023-04-18T05:17:07.947Z,97615.25
2023-04-18T05:19:36.104Z,97600.34
2023-04-18T05:22:03.617Z,97620.88
2023-04-18T05:24:32.814Z,97620.63
2023-04-18T05:27:00.226Z,97628.59
2023-04-18T05:29:27.797Z,97624.38
2023-04-18T05:31:55.249Z,97629.03
2023-04-18T05:34:22.678Z,97628.38
2023-04-18T05:36:50.392Z,97630.97
2023-04-18T05:39:17.854Z,97635.53
2023-04-18T05:41:44.912Z,97629.31
2023-04-18T05:44:12.758Z,97634.69
2023-04-18T05:46:42.000Z,97636.53
2023-04-18T05:49:09.294Z,97641.25
2023-04-18T05:51:37.400Z,97639.41
2023-04-18T05:54:04.715Z,97634.00
2023-04-18T05:56:32.134Z,97646.41
2023-04-18T05:58:59.776Z,97647.09
2023-04-18T06:01:27.863Z,97646.69
2023-04-18T06:03:56.068Z,97649.78
2023-04-18T06:06:23.940Z,97648.41
2023-04-18T06:08:51.606Z,97651.63
2023-04-18T06:11:21.457Z,97651.63
2023-04-18T06:13:49.261Z,97647.38
2023-04-18T06:16:16.757Z,97653.97
2023-04-18T06:18:44.170Z,97657.22
2023-04-18T06:21:11.236Z,97655.00
2023-04-18T06:23:39.008Z,97667.81
2023-04-18T06:26:07.728Z,97665.53
2023-04-18T06:28:35.328Z,97656.19
2023-04-18T06:31:02.983Z,97658.84
2023-04-18T06:33:30.061Z,97653.63
2023-04-18T06:35:58.335Z,97656.81
2023-04-18T06:38:25.801Z,97652.84
2023-04-18T06:40:53.462Z,97656.69
2023-04-18T06:43:22.942Z,97645.03
2023-04-18T06:45:51.169Z,97651.81
2023-04-18T06:48:18.273Z,97645.88
2023-04-18T06:50:46.216Z,97648.22
2023-04-18T06:53:13.419Z,97651.69
2023-04-18T06:55:41.225Z,97645.91
2023-04-18T06:58:09.429Z,97647.38
2023-04-18T07:00:37.061Z,97640.69
2023-04-18T07:03:11.371Z,97647.72
2023-04-18T07:05:42.008Z,97642.03
2023-04-18T07:08:09.592Z,97643.47
2023-04-18T07:10:36.920Z,97640.09
2023-04-18T07:13:04.963Z,97643.16
2023-04-18T07:15:32.150Z,97636.63
2023-04-18T07:17:59.770Z,97650.94
2023-04-18T07:20:26.987Z,97640.00
2023-04-18T07:22:54.395Z,97639.16
2023-04-18T07:25:22.222Z,97626.69
2023-04-18T07:27:50.470Z,97634.22
2023-04-18T07:30:17.552Z,97633.16
2023-04-18T07:32:45.198Z,97634.84
2023-04-18T07:35:12.655Z,97627.97
2023-04-18T07:37:39.957Z,97634.19
2023-04-18T07:40:07.609Z,97634.19
2023-04-18T07:42:34.785Z,97640.47
2023-04-18T07:45:01.886Z,97635.38
2023-04-18T07:47:30.759Z,97636.97
2023-04-18T07:49:58.687Z,97635.41
2023-04-18T07:52:26.118Z,97640.38
2023-04-18T07:54:53.389Z,97632.66
2023-04-18T07:57:20.768Z,97641.03
2023-04-18T07:59:48.019Z,97638.34
2023-04-18T08:02:15.362Z,97638.03
2023-04-18T08:04:42.697Z,97632.00
2023-04-18T08:07:09.919Z,97635.22
2023-04-18T08:09:37.048Z,97632.91
2023-04-18T08:12:04.359Z,97636.81
2023-04-18T08:14:31.587Z,97644.47
2023-04-18T08:16:58.757Z,97639.75
2023-04-18T08:19:26.645Z,97633.72
2023-04-18T08:21:53.768Z,97643.56
2023-04-18T08:24:21.058Z,97641.09
2023-04-18T08:26:48.312Z,97644.28
2023-04-18T08:29:15.502Z,97644.28
2023-04-18T08:31:42.713Z,97645.63
2023-04-18T08:34:09.999Z,97640.84
2023-04-18T08:36:37.119Z,97641.28
2023-04-18T08:39:04.702Z,97634.31
2023-04-18T08:41:37.229Z,97637.50
2023-04-18T08:44:04.500Z,97644.69
2023-04-18T08:46:37.504Z,97642.09
2023-04-18T08:49:06.540Z,97635.03
2023-04-18T08:51:34.154Z,97636.66
2023-04-18T08:54:04.712Z,97628.69
2023-04-18T08:56:32.389Z,97635.56
2023-04-18T08:59:00.652Z,97637.41
2023-04-18T09:01:56.794Z,97638.31
2023-04-18T09:04:37.519Z,97637.78
2023-04-18T09:07:07.522Z,97635.50
2023-04-18T09:09:48.965Z,97630.94
2023-04-18T09:12:25.719Z,97631.25
2023-04-18T09:14:57.985Z,97634.28
2023-04-18T09:17:32.285Z,97634.28
2023-04-18T09:20:00.395Z,97629.84
2023-04-18T09:22:46.470Z,97631.97
2023-04-18T09:25:45.432Z,97622.91
2023-04-18T09:28:33.383Z,97618.72
2023-04-18T09:31:04.676Z,97620.44
2023-04-18T09:33:37.129Z,97618.25
2023-04-18T09:36:31.527Z,97616.16
2023-04-18T09:38:58.909Z,97612.28
2023-04-18T09:41:26.028Z,97610.25
2023-04-18T09:44:13.528Z,97593.94
2023-04-18T09:46:43.351Z,97597.03
2023-04-18T09:49:12.875Z,97594.69
2023-04-18T09:51:42.420Z,97598.97
2023-04-18T09:54:15.403Z,97589.56
2023-04-18T09:56:47.092Z,97591.97
2023-04-18T09:59:19.837Z,97584.31
2023-04-18T10:01:50.054Z,97583.56
2023-04-18T10:04:18.684Z,97575.47
2023-04-18T10:06:47.098Z,97586.78
2023-04-18T10:09:16.394Z,97585.47
2023-04-18T10:11:44.672Z,97585.88
2023-04-18T10:14:14.921Z,97583.09
2023-04-18T10:16:45.927Z,97579.41
2023-04-18T10:19:27.660Z,97582.03
2023-04-18T10:22:00.793Z,97575.66
2023-04-18T10:24:56.488Z,97577.31
2023-04-18T10:27:48.149Z,97576.38
2023-04-18T10:30:16.590Z,97569.81
2023-04-18T10:32:46.216Z,97566.31
2023-04-18T10:35:13.418Z,97563.63
2023-04-18T10:37:51.375Z,97566.06
2023-04-18T10:40:33.217Z,97564.22
2023-04-18T10:43:00.699Z,97564.31
2023-04-18T10:45:31.825Z,97565.84
2023-04-18T10:48:29.676Z,97567.59
2023-04-18T10:51:19.235Z,97566.22
2023-04-18T10:53:53.060Z,97560.38
2023-04-18T10:56:20.968Z,97559.38
2023-04-18T10:58:52.366Z,97560.88
2023-04-18T11:01:33.398Z,97556.59
2023-04-18T11:04:01.582Z,97560.13
2023-04-18T11:06:29.332Z,97560.31
2023-04-18T11:09:12.783Z,97545.47
2023-04-18T11:11:40.557Z,97555.88
2023-04-18T11:14:08.032Z,97550.22
2023-04-18T11:16:35.431Z,97541.69
2023-04-18T11:19:22.161Z,97533.81
2023-04-18T11:21:49.888Z,97536.41
2023-04-18T11:24:24.238Z,97537.94
2023-04-18T11:26:56.437Z,97528.44
2023-04-18T11:29:23.643Z,97515.16
2023-04-18T11:31:58.330Z,97521.81
2023-04-18T11:34:33.197Z,97522.22
2023-04-18T11:37:00.708Z,97528.69
2023-04-18T11:39:28.239Z,97527.47
2023-04-18T11:41:57.468Z,97528.84
2023-04-18T11:44:25.211Z,97525.34
2023-04-18T11:46:54.991Z,97513.25
2023-04-18T11:49:25.698Z,97511.75
2023-04-18T11:51:53.938Z,97508.34
2023-04-18T11:54:40.117Z,97503.72
2023-04-18T11:57:19.359Z,97508.78
2023-04-18T12:00:07.122Z,97503.13
2023-04-18T12:02:45.123Z,97507.25
2023-04-18T12:05:15.323Z,97506.19
2023-04-18T12:07:48.927Z,97508.22
2023-04-18T12:10:31.632Z,97501.72
2023-04-18T12:13:00.068Z,97507.13
2023-04-18T12:15:29.786Z,97502.69
2023-04-18T12:18:02.482Z,97506.50
2023-04-18T12:20:46.528Z,97506.41
2023-04-18T12:23:30.350Z,97513.47
2023-04-18T12:26:05.193Z,97513.56
2023-04-18T12:28:33.047Z,97514.75
2023-04-18T12:31:00.273Z,97517.13
2023-04-18T12:33:27.830Z,97515.31
2023-04-18T12:35:55.012Z,97510.94
2023-04-18T12:38:23.628Z,97515.13
2023-04-18T12:40:52.033Z,97515.34
2023-04-18T12:43:21.897Z,97514.75
2023-04-18T12:45:50.320Z,97517.88
2023-04-18T12:48:17.418Z,97515.34
2023-04-18T12:50:44.696Z,97507.03
2023-04-18T12:53:11.944Z,97509.50
2023-04-18T12:55:39.240Z,97522.06
2023-04-18T12:58:06.344Z,97518.94
2023-04-18T13:00:33.804Z,97521.25
2023-04-18T13:03:01.511Z,97520.72
2023-04-18T13:05:33.166Z,97514.53
2023-04-18T13:10:31.396Z,97515.00
2023-04-18T13:12:58.702Z,97513.09
2023-04-18T13:15:27.715Z,97516.50
2023-04-18T13:17:57.106Z,97518.59
2023-04-18T13:20:24.413Z,97519.50
2023-04-18T13:22:51.526Z,97521.22
2023-04-18T13:25:18.685Z,97510.09
2023-04-18T13:27:46.299Z,97516.59
2023-04-18T13:30:13.792Z,97515.28
2023-04-18T13:32:41.158Z,97518.19
2023-04-18T13:35:11.046Z,97524.53
2023-04-18T13:37:38.943Z,97526.41
2023-04-18T13:40:07.069Z,97528.19
2023-04-18T13:42:37.109Z,97528.81
2023-04-18T13:45:04.983Z,97532.16
2023-04-18T13:47:32.498Z,97537.72
2023-04-18T13:49:59.903Z,97529.06
2023-04-18T13:52:27.053Z,97548.59
2023-04-18T13:54:54.412Z,97544.81
2023-04-18T13:57:22.289Z,97538.50
2023-04-18T13:59:49.521Z,97553.41
2023-04-18T14:02:16.967Z,97550.06
2023-04-18T14:04:44.323Z,97558.09
2023-04-18T14:07:11.759Z,97559.97
2023-04-18T14:09:38.996Z,97568.16
2023-04-18T14:12:06.414Z,97562.50
2023-04-18T14:14:33.618Z,97563.53
2023-04-18T14:17:03.365Z,97559.34
2023-04-18T14:19:30.546Z,97567.13
2023-04-18T14:21:57.694Z,97559.34
2023-04-18T14:24:24.837Z,97563.53
2023-04-18T14:26:52.064Z,97565.03
2023-04-18T14:29:19.295Z,97563.53
2023-04-18T14:31:46.656Z,97568.19
2023-04-18T14:34:14.144Z,97573.22
2023-04-18T14:36:41.498Z,97575.78
2023-04-18T14:39:08.766Z,97581.66
2023-04-18T14:41:36.106Z,97579.75
2023-04-18T14:44:04.406Z,97586.69
2023-04-18T14:46:31.779Z,97587.28
2023-04-18T14:48:59.028Z,97579.94
2023-04-18T14:51:26.566Z,97579.28
2023-04-18T14:53:53.743Z,97576.59
2023-04-18T14:56:22.426Z,97577.84
2023-04-18T14:58:49.571Z,97579.59
2023-04-18T15:01:19.680Z,97575.75
2023-04-18T15:03:47.040Z,97581.22
2023-04-18T15:06:14.385Z,97570.09
2023-04-18T15:08:41.536Z,97579.06
2023-04-18T15:11:09.259Z,97577.06
2023-04-18T15:13:36.790Z,97560.03
2023-04-18T15:16:04.131Z,97578.94
2023-04-18T15:18:31.334Z,97587.75
2023-04-18T15:20:59.909Z,97588.38
2023-04-18T15:23:27.885Z,97586.72
2023-04-18T15:25:55.173Z,97592.59
2023-04-18T15:28:22.528Z,97589.81
2023-04-18T15:30:49.678Z,97602.69
2023-04-18T15:33:19.333Z,97598.31
2023-04-18T15:35:47.957Z,97596.38
2023-04-18T15:38:15.293Z,97600.97
2023-04-18T15:40:43.804Z,97601.84
2023-04-18T15:43:11.364Z,97599.72
2023-04-18T15:45:38.547Z,97595.31
2023-04-18T15:48:05.948Z,97605.44
2023-04-18T15:50:34.080Z,97598.28
2023-04-18T15:53:01.869Z,97602.28
2023-04-18T15:55:29.069Z,97607.75
2023-04-18T15:57:56.548Z,97615.31
2023-04-18T16:00:24.420Z,97612.59
2023-04-18T16:02:51.799Z,97613.66
2023-04-18T16:05:19.348Z,97620.63
2023-04-18T16:07:46.664Z,97620.00
2023-04-18T16:10:15.522Z,97629.81
2023-04-18T16:12:42.817Z,97632.69
2023-04-18T16:15:12.046Z,97631.25
2023-04-18T16:17:40.319Z,97640.06
2023-04-18T16:20:09.922Z,97637.97
2023-04-18T16:22:39.096Z,97643.38
2023-04-18T16:25:08.532Z,97639.53
2023-04-18T16:27:37.731Z,97641.09
2023-04-18T16:30:06.545Z,97631.25
2023-04-18T16:32:34.719Z,97651.69
2023-04-18T16:35:04.469Z,97657.59
2023-04-18T16:37:33.554Z,97661.22
2023-04-18T16:40:01.314Z,97655.91
2023-04-18T16:42:28.515Z,97659.34
2023-04-18T16:44:55.725Z,97663.94
2023-04-18T16:47:22.838Z,97659.19
2023-04-18T16:49:51.626Z,97661.47
2023-04-18T16:52:19.200Z,97669.16
2023-04-18T16:54:46.326Z,97652.75
2023-04-18T16:57:13.580Z,97672.97
2023-04-18T16:59:42.152Z,97680.66
2023-04-18T17:02:09.521Z,97676.69
2023-04-18T17:04:37.256Z,97684.13
2023-04-18T17:07:04.599Z,97689.25
2023-04-18T17:09:32.367Z,97680.63
2023-04-18T17:11:59.663Z,97693.81
2023-04-18T17:14:26.931Z,97702.72
2023-04-18T17:16:54.180Z,97704.44
2023-04-18T17:19:21.634Z,97703.00
2023-04-18T17:21:49.738Z,97705.75
2023-04-18T17:24:19.010Z,97710.84
2023-04-18T17:26:46.250Z,97701.28
2023-04-18T17:29:13.659Z,97716.78
2023-04-18T17:31:41.438Z,97718.53
2023-04-18T17:34:08.663Z,97713.88
2023-04-18T17:36:35.962Z,97727.06
2023-04-18T17:39:06.800Z,97737.47
2023-04-18T17:41:39.952Z,97743.69
2023-04-18T17:44:08.678Z,97747.00
2023-04-18T17:46:36.274Z,97751.78
2023-04-18T17:49:04.849Z,97758.56
2023-04-18T17:51:32.177Z,97759.38
2023-04-18T17:53:59.336Z,97766.13
2023-04-18T17:56:27.256Z,97778.22
2023-04-18T17:58:56.578Z,97786.88
2023-04-18T18:01:25.036Z,97784.50
2023-04-18T18:03:54.088Z,97789.97
2023-04-18T18:06:21.868Z,97801.22
2023-04-18T18:08:49.177Z,97787.16
2023-04-18T18:11:16.546Z,97807.00
2023-04-18T18:13:44.218Z,97809.66
2023-04-18T18:16:11.895Z,97810.56
2023-04-18T18:18:39.769Z,97809.56
2023-04-18T18:21:06.997Z,97807.41
2023-04-18T18:23:34.328Z,97809.13
2023-04-18T18:26:01.551Z,97804.56
2023-04-18T18:28:29.125Z,97817.72
2023-04-18T18:30:56.293Z,97827.59
2023-04-18T18:33:23.592Z,97807.88
2023-04-18T18:35:51.127Z,97820.94
2023-04-18T18:38:18.342Z,97821.41
2023-04-18T18:40:46.058Z,97824.47
2023-04-18T18:43:13.572Z,97820.03
2023-04-18T18:45:40.873Z,97833.97
2023-04-18T18:48:12.058Z,97828.19
2023-04-18T18:50:39.289Z,97831.09
2023-04-18T18:53:07.437Z,97827.56
2023-04-18T18:55:34.504Z,97826.91
2023-04-18T18:58:02.830Z,97826.69
2023-04-18T19:00:30.221Z,97834.44
2023-04-18T19:02:57.824Z,97828.50
2023-04-18T19:05:25.101Z,97826.50
2023-04-18T19:07:52.483Z,97820.94
2023-04-18T19:10:19.910Z,97826.69
2023-04-18T19:12:47.369Z,97835.13
2023-04-18T19:15:15.050Z,97834.28
2023-04-18T19:17:42.268Z,97836.69
2023-04-18T19:20:09.772Z,97842.28
2023-04-18T19:22:37.756Z,97837.91
2023-04-18T19:25:05.159Z,97837.88
2023-04-18T19:27:32.508Z,97847.56
2023-04-18T19:29:59.624Z,97835.50
2023-04-18T19:32:27.221Z,97834.47
2023-04-18T19:34:54.425Z,97838.31
2023-04-18T19:37:21.654Z,97841.69
2023-04-18T19:39:48.819Z,97843.25
2023-04-18T19:42:15.933Z,97846.41
2023-04-18T19:44:43.203Z,97847.34
2023-04-18T19:47:10.462Z,97843.97
2023-04-18T19:49:38.109Z,97847.97
2023-04-18T19:52:05.459Z,97838.16
2023-04-18T19:54:36.223Z,97844.53
2023-04-18T19:57:04.966Z,97851.28
2023-04-18T19:59:32.330Z,97847.75
2023-04-18T20:02:03.287Z,97846.88
2023-04-18T20:04:35.237Z,97835.53
2023-04-18T20:07:02.980Z,97836.56
2023-04-18T20:09:30.165Z,97832.31
2023-04-18T20:12:00.689Z,97836.88
2023-04-18T20:14:29.087Z,97825.38
2023-04-18T20:16:56.887Z,97827.50
2023-04-18T20:19:27.132Z,97822.16
2023-04-18T20:21:54.249Z,97824.63
2023-04-18T20:24:24.085Z,97825.69
2023-04-18T20:26:51.942Z,97829.41
2023-04-18T20:29:19.119Z,97817.88
2023-04-18T20:31:46.485Z,97806.69
2023-04-18T20:34:13.692Z,97815.69
2023-04-18T20:36:41.858Z,97808.41
2023-04-18T20:39:09.500Z,97813.50
2023-04-18T20:41:37.341Z,97805.00
2023-04-18T20:44:09.413Z,97811.88
2023-04-18T20:46:36.616Z,97798.22
2023-04-18T20:49:03.927Z,97813.84
2023-04-18T20:51:32.068Z,97824.00
2023-04-18T20:53:59.243Z,97817.56
2023-04-18T20:56:26.711Z,97815.88
2023-04-18T20:58:53.816Z,97825.88
2023-04-18T21:01:22.129Z,97822.66
2023-04-18T21:03:54.644Z,97813.47
2023-04-18T21:06:22.329Z,97814.50
2023-04-18T21:08:50.196Z,97804.41
2023-04-18T21:11:17.328Z,97806.16
2023-04-18T21:13:44.523Z,97816.25
2023-04-18T21:16:11.731Z,97808.53
2023-04-18T21:18:38.857Z,97807.44
2023-04-18T21:21:06.447Z,97814.50
2023-04-18T21:23:33.686Z,97814.28
2023-04-18T21:26:00.903Z,97814.06
2023-04-18T21:28:28.065Z,97815.75
2023-04-18T21:30:55.254Z,97808.72
2023-04-18T21:33:23.976Z,97806.34
2023-04-18T21:35:51.240Z,97801.19
2023-04-18T21:38:18.458Z,97791.53
2023-04-18T21:40:45.603Z,97793.16
2023-04-18T21:43:12.768Z,97786.03
2023-04-18T21:45:40.122Z,97801.03
2023-04-18T21:48:09.884Z,97799.41
2023-04-18T21:50:37.064Z,97806.03
2023-04-18T21:53:04.210Z,97799.47
2023-04-18T21:55:31.368Z,97804.66
2023-04-18T21:57:59.965Z,97803.31
2023-04-18T22:00:27.961Z,97796.44
2023-04-18T22:02:55.337Z,97792.97
2023-04-18T22:05:22.526Z,97798.91
2023-04-18T22:07:57.548Z,97801.47
2023-04-18T22:10:25.878Z,97812.28
2023-04-18T22:12:54.375Z,97805.50
2023-04-18T22:15:21.868Z,97818.63
2023-04-18T22:17:50.746Z,97817.13
2023-04-18T22:20:17.968Z,97812.28
2023-04-18T22:22:45.972Z,97805.50
2023-04-18T22:25:13.158Z,97811.97
2023-04-18T22:27:41.194Z,97803.66
2023-04-18T22:30:09.476Z,97811.13
2023-04-18T22:32:37.049Z,97801.97
2023-04-18T22:35:04.485Z,97793.66
2023-04-18T22:37:31.772Z,97795.69
2023-04-18T22:39:59.026Z,97810.78
2023-04-18T22:42:26.206Z,97804.19
2023-04-18T22:44:53.444Z,97806.72
2023-04-18T22:47:20.909Z,97798.88
2023-04-18T22:49:48.095Z,97799.81
2023-04-18T22:52:15.990Z,97807.88
2023-04-18T22:54:43.284Z,97802.78
2023-04-18T22:57:10.533Z,97800.84
2023-04-18T22:59:37.908Z,97797.56
2023-04-18T23:02:05.396Z,97800.25
2023-04-18T23:04:33.405Z,97798.25
2023-04-18T23:07:00.699Z,97799.94
2023-04-18T23:09:28.790Z,97800.94
2023-04-18T23:11:56.902Z,97793.31
2023-04-18T23:14:24.279Z,97792.97
2023-04-18T23:16:51.896Z,97796.69
2023-04-18T23:19:19.701Z,97783.63
2023-04-18T23:21:48.973Z,97786.19
2023-04-18T23:24:17.246Z,97791.78
2023-04-18T23:26:44.462Z,97790.44
2023-04-18T23:29:12.170Z,97782.84
2023-04-18T23:31:39.810Z,97788.59
2023-04-18T23:34:08.787Z,97782.41
2023-04-18T23:36:36.510Z,97779.28
2023-04-18T23:39:04.480Z,97781.94
2023-04-18T23:41:31.613Z,97775.41
2023-04-18T23:44:01.440Z,97769.03
2023-04-18T23:46:31.455Z,97768.69
2023-04-18T23:48:59.574Z,97763.97
2023-04-18T23:51:28.453Z,97769.69
2023-04-18T23:53:55.933Z,97775.78
2023-04-18T23:56:23.502Z,97761.78
2023-04-18T23:58:50.914Z,97764.13
